Time;durP1;ratioP1;P1;durP2;ratioP2;P2;SDS_P1;SDS_P2;PMS_P1;PMS_P2;Temp;Humidity;BMP_temperature;BMP_pressure;BME280_temperature;BME280_humidity;BME280_pressure;Samples;Min_cycle;Max_cycle;Signal;HPM_P1;HPM_P2
2021/07/18 00:00:57;;;;;;;8.68;3.40;;;23.60;82.60;;;;;;4878654;29;20052;-67
2021/07/18 00:04:00;;;;;;;7.55;3.25;;;23.50;83.40;;;;;;4878716;29;20052;-67
2021/07/18 00:07:05;;;;;;;6.93;3.42;;;23.50;83.30;;;;;;4878954;29;20048;-67
2021/07/18 00:10:09;;;;;;;9.85;3.40;;;23.40;83.70;;;;;;4877756;29;20051;-67
2021/07/18 00:13:14;;;;;;;12.75;3.75;;;23.20;84.30;;;;;;4877692;29;20057;-67
2021/07/18 00:16:18;;;;;;;5.35;2.90;;;23.20;84.20;;;;;;4878530;29;20060;-66
2021/07/18 00:19:22;;;;;;;11.10;2.88;;;23.10;83.30;;;;;;4878360;29;20115;-67
2021/07/18 00:22:26;;;;;;;4.85;2.60;;;23.10;83.30;;;;;;4878241;29;20060;-67
2021/07/18 00:25:33;;;;;;;7.65;3.00;;;23.10;83.40;;;;;;4877527;29;20040;-67
2021/07/18 00:28:38;;;;;;;6.90;2.80;;;23.10;83.70;;;;;;4878525;29;20055;-67
2021/07/18 00:31:42;;;;;;;5.93;2.90;;;23.10;83.70;;;;;;4878167;29;20048;-66
2021/07/18 00:34:46;;;;;;;6.15;2.60;;;23.10;83.40;;;;;;4878417;29;20421;-68
2021/07/18 00:37:50;;;;;;;3.88;2.70;;;23.20;83.50;;;;;;4878214;29;20044;-72
2021/07/18 00:40:54;;;;;;;6.95;3.53;;;23.20;83.40;;;;;;4878051;29;20516;-67
2021/07/18 00:43:58;;;;;;;7.03;2.72;;;23.20;83.20;;;;;;4878049;29;20056;-67
2021/07/18 00:47:03;;;;;;;4.38;2.30;;;23.20;83.20;;;;;;4878122;29;20044;-67
2021/07/18 00:50:13;;;;;;;4.72;2.53;;;23.20;82.60;;;;;;4878095;29;20055;-68
2021/07/18 00:53:17;;;;;;;6.00;2.20;;;23.20;82.60;;;;;;4878057;29;20052;-67
2021/07/18 00:56:22;;;;;;;3.50;2.20;;;23.10;82.90;;;;;;4878005;29;20348;-67
2021/07/18 00:59:26;;;;;;;4.20;2.17;;;23.00;83.40;;;;;;4877993;29;20040;-66
2021/07/18 01:02:30;;;;;;;4.32;1.92;;;23.00;83.50;;;;;;4877823;29;20064;-67
2021/07/18 01:05:34;;;;;;;6.22;2.00;;;23.00;83.70;;;;;;4878012;29;20421;-68
2021/07/18 01:08:39;;;;;;;4.03;1.85;;;23.10;83.40;;;;;;4877522;29;20047;-68
2021/07/18 01:11:43;;;;;;;2.65;1.80;;;23.00;82.80;;;;;;4877763;29;20052;-67
2021/07/18 01:14:49;;;;;;;3.50;1.90;;;23.10;82.80;;;;;;4877637;29;20078;-67
2021/07/18 01:17:53;;;;;;;3.35;1.98;;;23.20;82.40;;;;;;4877709;29;20052;-67
2021/07/18 01:20:57;;;;;;;3.67;2.00;;;23.30;82.40;;;;;;4877460;29;20044;-66
2021/07/18 01:24:03;;;;;;;2.95;1.95;;;23.30;82.50;;;;;;4877617;29;20544;-67
2021/07/18 01:27:07;;;;;;;5.60;2.05;;;23.40;82.60;;;;;;4877712;29;20048;-67
2021/07/18 01:30:13;;;;;;;2.60;2.05;;;23.30;82.60;;;;;;4877445;29;20043;-67
2021/07/18 01:33:18;;;;;;;4.32;2.08;;;23.40;82.50;;;;;;4877332;29;20056;-66
2021/07/18 01:36:22;;;;;;;3.70;2.10;;;23.30;83.10;;;;;;4877474;29;20508;-67
2021/07/18 01:39:26;;;;;;;3.25;2.03;;;23.30;83.00;;;;;;4877244;29;20048;-67
2021/07/18 01:42:30;;;;;;;3.50;2.10;;;23.10;83.30;;;;;;4876465;29;20127;-68
2021/07/18 01:45:35;;;;;;;4.90;1.98;;;23.00;83.90;;;;;;4877460;29;20063;-69
2021/07/18 01:48:41;;;;;;;2.25;1.92;;;22.80;84.60;;;;;;4877235;29;20071;-66
2021/07/18 01:51:45;;;;;;;2.38;1.85;;;22.70;84.80;;;;;;4877126;29;20044;-67
2021/07/18 01:54:49;;;;;;;5.35;1.85;;;22.70;85.00;;;;;;4877144;29;20126;-67
2021/07/18 01:57:53;;;;;;;4.43;2.03;;;22.80;84.80;;;;;;4880963;29;20052;-67
2021/07/18 02:00:57;;;;;;;3.35;2.15;;;22.80;84.70;;;;;;4881046;29;20430;-68
2021/07/18 02:04:04;;;;;;;3.65;2.10;;;22.70;85.30;;;;;;4880986;29;20056;-66
2021/07/18 02:07:08;;;;;;;3.42;1.98;;;22.70;85.50;;;;;;4880776;29;20052;-68
2021/07/18 02:10:19;;;;;;;4.50;2.00;;;22.60;85.00;;;;;;4880872;29;20048;-67
2021/07/18 02:13:26;;;;;;;3.55;2.30;;;22.60;85.20;;;;;;4880853;29;20048;-68
2021/07/18 02:16:31;;;;;;;4.18;1.92;;;22.70;85.00;;;;;;4880708;29;20504;-66
2021/07/18 02:19:35;;;;;;;3.33;2.00;;;22.70;85.20;;;;;;4880967;29;20059;-67
2021/07/18 02:22:51;;;;;;;3.38;2.20;;;22.80;84.70;;;;;;4880580;29;20115;-67
2021/07/18 02:25:55;;;;;;;2.75;1.98;;;22.70;84.70;;;;;;4880628;29;20044;-67
2021/07/18 02:29:00;;;;;;;7.47;2.55;;;22.60;84.40;;;;;;4880528;29;20425;-67
2021/07/18 02:32:07;;;;;;;8.23;2.00;;;22.60;84.40;;;;;;4880049;29;20047;-67
2021/07/18 02:35:14;;;;;;;4.28;2.50;;;22.70;84.60;;;;;;4880554;29;20060;-67
2021/07/18 02:38:18;;;;;;;6.47;3.60;;;22.80;84.10;;;;;;4880162;29;20047;-67
2021/07/18 02:41:22;;;;;;;3.90;2.65;;;22.90;83.80;;;;;;4880131;29;20052;-67
2021/07/18 02:44:26;;;;;;;5.93;1.90;;;23.00;83.50;;;;;;4880251;29;20044;-66
2021/07/18 02:47:30;;;;;;;3.78;1.75;;;23.00;83.10;;;;;;4880366;29;20512;-67
2021/07/18 02:50:34;;;;;;;4.20;2.17;;;23.10;83.10;;;;;;4880048;29;20048;-67
2021/07/18 02:53:38;;;;;;;5.45;2.20;;;23.10;83.10;;;;;;4880024;29;20440;-68
2021/07/18 02:56:42;;;;;;;5.18;2.35;;;23.00;83.20;;;;;;4879893;29;20717;-67
2021/07/18 02:59:46;;;;;;;2.95;2.10;;;22.80;84.00;;;;;;4879923;29;20496;-66
2021/07/18 03:02:50;;;;;;;4.32;2.25;;;22.60;84.80;;;;;;4879758;29;20064;-67
2021/07/18 03:05:54;;;;;;;3.78;2.20;;;22.40;84.80;;;;;;4879807;29;20397;-67
2021/07/18 03:08:58;;;;;;;3.85;2.60;;;22.40;85.20;;;;;;4878544;29;20059;-67
2021/07/18 03:12:02;;;;;;;3.33;2.10;;;22.40;85.00;;;;;;4879638;29;20068;-66
2021/07/18 03:15:09;;;;;;;4.45;2.40;;;22.50;84.50;;;;;;4879664;29;20509;-67
2021/07/18 03:18:13;;;;;;;4.75;2.25;;;22.60;83.90;;;;;;4879473;29;20052;-67
2021/07/18 03:21:17;;;;;;;5.10;2.60;;;22.60;83.60;;;;;;4879478;29;20044;-67
2021/07/18 03:24:21;;;;;;;4.43;2.70;;;22.60;83.50;;;;;;4878668;29;20056;-67
2021/07/18 03:27:25;;;;;;;2.45;2.08;;;22.70;83.00;;;;;;4879395;29;20048;-66
2021/07/18 03:30:29;;;;;;;2.78;1.80;;;22.70;82.70;;;;;;4879518;29;20059;-66
2021/07/18 03:33:34;;;;;;;5.03;1.92;;;22.70;82.80;;;;;;4879486;29;20676;-67
2021/07/18 03:36:38;;;;;;;2.40;2.00;;;22.70;82.90;;;;;;4879317;29;20056;-67
2021/07/18 03:39:43;;;;;;;3.88;1.80;;;22.70;82.90;;;;;;4879398;29;20045;-68
2021/07/18 03:42:47;;;;;;;2.97;2.22;;;22.70;83.20;;;;;;4879210;29;20152;-67
2021/07/18 03:45:51;;;;;;;3.97;1.80;;;22.60;82.90;;;;;;4879240;29;20044;-68
2021/07/18 03:48:55;;;;;;;4.07;1.80;;;22.50;83.10;;;;;;4878277;29;20051;-66
2021/07/18 03:51:59;;;;;;;4.18;2.30;;;22.50;83.30;;;;;;4878261;29;20052;-68
2021/07/18 03:55:05;;;;;;;6.15;1.92;;;22.50;82.70;;;;;;4879300;29;20052;-68
2021/07/18 03:58:09;;;;;;;2.67;1.90;;;22.50;83.00;;;;;;4878886;29;20078;-68
2021/07/18 04:01:13;;;;;;;4.50;2.00;;;22.40;83.50;;;;;;4878974;29;20196;-66
2021/07/18 04:04:18;;;;;;;2.55;2.30;;;22.40;83.70;;;;;;4878850;29;20417;-68
2021/07/18 04:07:22;;;;;;;6.88;2.50;;;22.40;83.60;;;;;;4878725;29;20048;-68
2021/07/18 04:10:26;;;;;;;3.80;2.42;;;22.40;83.50;;;;;;4878807;29;20044;-68
2021/07/18 04:13:30;;;;;;;3.78;3.00;;;22.40;82.90;;;;;;4878623;29;20043;-68
2021/07/18 04:16:34;;;;;;;4.03;2.97;;;22.30;82.90;;;;;;4878434;29;20044;-68
2021/07/18 04:19:38;;;;;;;7.50;3.95;;;22.40;82.50;;;;;;4878443;29;20048;-67
2021/07/18 04:22:42;;;;;;;7.38;2.65;;;22.60;82.10;;;;;;4878448;29;20060;-67
2021/07/18 04:25:47;;;;;;;6.20;2.40;;;22.70;82.00;;;;;;4877682;29;20040;-67
2021/07/18 04:28:54;;;;;;;4.72;2.60;;;22.80;82.10;;;;;;4878419;29;20051;-67
2021/07/18 04:31:58;;;;;;;5.75;2.40;;;22.90;82.20;;;;;;4877553;29;20043;-67
2021/07/18 04:35:02;;;;;;;5.75;2.28;;;23.00;82.10;;;;;;4877511;29;20048;-66
2021/07/18 04:38:07;;;;;;;5.07;2.70;;;23.10;81.20;;;;;;4878525;29;20056;-67
2021/07/18 04:41:11;;;;;;;3.85;2.45;;;23.10;80.90;;;;;;4878245;29;20403;-67
2021/07/18 04:44:15;;;;;;;7.55;2.97;;;23.30;80.30;;;;;;4878448;29;20060;-68
2021/07/18 04:47:19;;;;;;;7.45;3.47;;;23.40;80.00;;;;;;4878075;29;20048;-67
2021/07/18 04:50:25;;;;;;;5.50;2.88;;;23.40;78.90;;;;;;4878086;29;20064;-67
2021/07/18 04:53:29;;;;;;;15.35;5.25;;;23.50;79.20;;;;;;4878020;29;20397;-67
2021/07/18 04:56:33;;;;;;;12.82;4.90;;;23.50;79.60;;;;;;4877847;29;20051;-68
2021/07/18 04:59:38;;;;;;;7.93;4.45;;;23.60;79.30;;;;;;4878249;29;20040;-66
2021/07/18 05:02:42;;;;;;;12.15;4.93;;;23.60;79.40;;;;;;4877777;29;20060;-67
2021/07/18 05:05:46;;;;;;;5.75;3.60;;;23.90;78.60;;;;;;4877772;29;20040;-67
2021/07/18 05:08:50;;;;;;;7.80;4.32;;;24.10;76.80;;;;;;4877792;29;20048;-68
2021/07/18 05:11:54;;;;;;;7.47;4.00;;;24.60;75.60;;;;;;4877647;29;20508;-70
2021/07/18 05:14:58;;;;;;;9.18;4.40;;;24.80;73.70;;;;;;4876991;29;20044;-68
2021/07/18 05:18:13;;;;;;;8.35;4.38;;;25.10;73.20;;;;;;4877433;29;20064;-68
2021/07/18 05:21:17;;;;;;;6.97;4.13;;;25.20;73.30;;;;;;4877674;29;20500;-67
2021/07/18 05:24:21;;;;;;;6.75;3.50;;;25.60;72.30;;;;;;4877545;29;20060;-67
2021/07/18 05:27:25;;;;;;;7.55;3.47;;;25.90;72.30;;;;;;4877505;29;20048;-68
2021/07/18 05:30:29;;;;;;;8.07;3.03;;;26.20;72.00;;;;;;4876905;29;20517;-68
2021/07/18 05:33:34;;;;;;;5.35;3.10;;;26.10;71.20;;;;;;4877248;29;20052;-70
2021/07/18 05:36:38;;;;;;;6.45;3.10;;;25.80;72.30;;;;;;4877446;29;20068;-68
2021/07/18 05:39:42;;;;;;;7.72;3.25;;;25.60;73.20;;;;;;4877460;29;20048;-69
2021/07/18 05:42:46;;;;;;;3.80;2.83;;;25.40;73.30;;;;;;4877432;29;20060;-67
2021/07/18 05:45:50;;;;;;;11.57;4.10;;;25.20;74.20;;;;;;4877378;29;20133;-67
2021/07/18 05:48:57;;;;;;;11.77;3.83;;;25.00;74.30;;;;;;4877465;29;20052;-68
2021/07/18 05:52:01;;;;;;;8.80;4.57;;;25.00;73.50;;;;;;4877367;29;20373;-68
2021/07/18 05:55:10;;;;;;;9.60;6.00;;;25.20;73.70;;;;;;4876670;29;20052;-68
2021/07/18 05:58:14;;;;;;;9.88;4.72;;;25.50;72.60;;;;;;4877218;29;20052;-67
2021/07/18 06:01:18;;;;;;;9.82;5.72;;;25.70;71.40;;;;;;4877109;29;20044;-67
2021/07/18 06:04:25;;;;;;;7.80;5.57;;;26.00;70.60;;;;;;4877367;29;20064;-68
2021/07/18 06:07:29;;;;;;;7.60;4.97;;;25.80;71.60;;;;;;4876201;29;20048;-66
2021/07/18 06:10:34;;;;;;;10.38;5.15;;;25.80;71.00;;;;;;4876727;29;20120;-66
2021/07/18 06:13:41;;;;;;;7.30;4.50;;;25.70;71.90;;;;;;4876830;29;20052;-67
2021/07/18 06:16:45;;;;;;;10.60;5.10;;;25.60;73.30;;;;;;4875781;29;20053;-67
2021/07/18 06:19:49;;;;;;;8.70;5.25;;;25.60;73.00;;;;;;4876488;29;20061;-68
2021/07/18 06:22:53;;;;;;;7.75;5.00;;;25.60;73.10;;;;;;4876669;29;20059;-68
2021/07/18 06:25:57;;;;;;;14.45;5.70;;;25.70;72.40;;;;;;4874323;29;20045;-67
2021/07/18 06:29:01;;;;;;;11.75;5.45;;;25.80;72.40;;;;;;4877077;29;20048;-67
2021/07/18 06:32:06;;;;;;;8.80;4.93;;;26.00;72.20;;;;;;4877086;29;20052;-70
2021/07/18 06:35:13;;;;;;;7.28;5.40;;;26.20;71.30;;;;;;4877350;29;20064;-66
2021/07/18 06:38:17;;;;;;;8.43;4.85;;;26.30;71.10;;;;;;4876355;29;20056;-68
2021/07/18 06:41:21;;;;;;;13.23;5.43;;;26.20;71.00;;;;;;4876986;29;20111;-67
2021/07/18 06:44:25;;;;;;;11.98;5.22;;;26.30;71.40;;;;;;4868857;29;20064;-68
2021/07/18 06:47:29;;;;;;;8.52;5.35;;;26.50;70.80;;;;;;4880243;29;20599;-66
2021/07/18 06:50:33;;;;;;;8.48;5.65;;;26.60;70.50;;;;;;4880314;29;20056;-66
2021/07/18 06:53:38;;;;;;;9.40;5.60;;;26.60;70.40;;;;;;4880208;29;20036;-68
2021/07/18 06:56:41;;;;;;;7.93;5.30;;;26.60;70.30;;;;;;4880072;29;20048;-67
2021/07/18 06:59:48;;;;;;;7.55;5.10;;;26.60;69.50;;;;;;4880366;29;20512;-67
2021/07/18 07:02:52;;;;;;;7.70;4.72;;;26.50;69.70;;;;;;4879230;29;20405;-68
2021/07/18 07:05:56;;;;;;;8.18;4.35;;;26.30;69.40;;;;;;4879934;29;20060;-69
2021/07/18 07:09:00;;;;;;;10.10;5.25;;;26.20;69.90;;;;;;4880071;29;20056;-67
2021/07/18 07:12:04;;;;;;;11.50;5.22;;;26.50;70.00;;;;;;4880147;29;20064;-68
2021/07/18 07:15:09;;;;;;;9.68;4.72;;;27.00;70.40;;;;;;4879886;29;20052;-68
2021/07/18 07:18:13;;;;;;;10.88;4.20;;;27.50;69.50;;;;;;4879660;29;20052;-68
2021/07/18 07:21:17;;;;;;;6.60;4.43;;;28.00;67.80;;;;;;4879774;29;20051;-66
2021/07/18 07:24:21;;;;;;;6.25;4.65;;;28.70;66.40;;;;;;4879503;29;20060;-67
2021/07/18 07:27:25;;;;;;;7.43;4.43;;;29.30;64.70;;;;;;4879477;29;20040;-67
2021/07/18 07:30:30;;;;;;;8.40;4.90;;;29.50;63.40;;;;;;4879401;29;20398;-66
2021/07/18 07:33:35;;;;;;;7.53;4.10;;;29.20;63.70;;;;;;4879282;29;20532;-67
2021/07/18 07:36:42;;;;;;;7.60;4.72;;;29.00;64.80;;;;;;4879304;29;20048;-67
2021/07/18 07:39:46;;;;;;;9.82;4.28;;;28.70;65.10;;;;;;4879364;29;20044;-67
2021/07/18 07:42:51;;;;;;;8.63;4.75;;;28.50;65.70;;;;;;4878478;29;20093;-66
2021/07/18 07:45:54;;;;;;;5.72;4.35;;;28.30;65.50;;;;;;4879133;29;20405;-66
2021/07/18 07:48:59;;;;;;;11.27;5.60;;;28.10;66.10;;;;;;4879345;29;20048;-67
2021/07/18 07:52:03;;;;;;;8.93;5.55;;;27.90;65.60;;;;;;4879044;29;20055;-66
2021/07/18 07:55:09;;;;;;;7.05;5.55;;;27.90;65.80;;;;;;4878434;29;20048;-66
2021/07/18 07:58:13;;;;;;;12.75;5.35;;;28.00;65.10;;;;;;4879330;29;20048;-67
2021/07/18 08:01:18;;;;;;;10.30;5.03;;;28.10;65.50;;;;;;4879050;29;20057;-67
2021/07/18 08:04:22;;;;;;;11.45;4.57;;;28.20;65.50;;;;;;4878769;29;20405;-68
2021/07/18 08:07:26;;;;;;;9.63;4.95;;;28.70;65.10;;;;;;4879104;29;20048;-66
2021/07/18 08:10:31;;;;;;;6.50;4.53;;;29.40;64.00;;;;;;4879098;29;20048;-67
2021/07/18 08:13:38;;;;;;;6.15;3.90;;;30.00;62.60;;;;;;4878382;29;20051;-68
2021/07/18 08:16:42;;;;;;;11.63;4.70;;;30.40;61.60;;;;;;4878763;29;20052;-68
2021/07/18 08:19:47;;;;;;;9.88;4.63;;;30.60;60.80;;;;;;4878492;29;20048;-70
2021/07/18 08:22:56;;;;;;;7.57;4.47;;;30.60;60.60;;;;;;4878156;29;20085;-66
2021/07/18 08:25:59;;;;;;;11.50;4.47;;;30.30;61.00;;;;;;4878402;29;20047;-68
2021/07/18 08:29:04;;;;;;;9.27;4.18;;;30.00;61.50;;;;;;4878330;29;20057;-66
2021/07/18 08:32:08;;;;;;;11.35;4.97;;;29.90;61.80;;;;;;4878415;29;20585;-67
2021/07/18 08:35:13;;;;;;;8.20;5.10;;;29.90;61.70;;;;;;4878373;29;20052;-67
2021/07/18 08:38:17;;;;;;;8.82;4.53;;;29.90;61.10;;;;;;4877386;29;20068;-69
2021/07/18 08:41:22;;;;;;;8.93;5.03;;;29.80;61.50;;;;;;4878120;29;20052;-67
2021/07/18 08:44:26;;;;;;;8.68;5.30;;;29.80;61.60;;;;;;4878193;29;20056;-68
2021/07/18 08:47:30;;;;;;;7.80;4.60;;;29.70;61.70;;;;;;4878410;29;20068;-67
2021/07/18 08:50:34;;;;;;;16.85;5.15;;;29.70;61.90;;;;;;4877950;29;20394;-67
2021/07/18 08:53:40;;;;;;;14.25;5.55;;;29.60;61.70;;;;;;4878070;29;20048;-67
2021/07/18 08:56:46;;;;;;;7.22;5.00;;;29.30;62.30;;;;;;4877918;29;20122;-67
2021/07/18 08:59:51;;;;;;;15.57;5.68;;;29.10;63.10;;;;;;4877862;29;20052;-66
2021/07/18 09:02:55;;;;;;;10.82;5.18;;;29.00;63.10;;;;;;4877216;29;20056;-67
2021/07/18 09:06:10;;;;;;;9.63;5.60;;;28.80;63.60;;;;;;4877001;29;20053;-67
2021/07/18 09:09:17;;;;;;;8.93;5.43;;;28.50;64.30;;;;;;4877933;29;20502;-68
2021/07/18 09:12:20;;;;;;;8.52;5.82;;;28.20;65.20;;;;;;4877672;29;20056;-66
2021/07/18 09:15:40;;;;;;;5.97;5.32;;;28.10;65.80;;;;;;4877729;29;20044;-67
2021/07/18 09:18:44;;;;;;;7.53;5.43;;;28.20;66.20;;;;;;4877700;29;20044;-69
2021/07/18 09:22:16;;;;;;;8.23;5.78;;;28.20;65.90;;;;;;4876695;29;20052;-66
2021/07/18 09:25:19;;;;;;;7.88;5.45;;;28.30;65.50;;;;;;4877558;29;20055;-68
2021/07/18 09:28:23;;;;;;;9.82;5.68;;;28.30;65.60;;;;;;4877623;29;20500;-66
2021/07/18 09:31:29;;;;;;;13.50;5.90;;;28.30;65.50;;;;;;4877453;29;20047;-68
2021/07/18 09:34:35;;;;;;;7.47;5.63;;;28.40;65.50;;;;;;4877346;29;20087;-68
2021/07/18 09:37:41;;;;;;;7.07;5.28;;;28.40;65.70;;;;;;4877398;29;20052;-67
2021/07/18 09:40:55;;;;;;;11.18;5.57;;;28.30;65.80;;;;;;4877485;29;20048;-67
2021/07/18 09:44:03;;;;;;;12.88;5.72;;;28.30;65.60;;;;;;4877378;29;20064;-68
2021/07/18 09:47:07;;;;;;;16.63;6.10;;;28.30;66.00;;;;;;4877308;29;20542;-67
2021/07/18 09:50:17;;;;;;;20.17;7.30;;;28.10;70.50;;;;;;4877144;29;20056;-65
2021/07/18 09:53:22;;;;;;;33.40;9.70;;;27.70;74.90;;;;;;4877680;29;20060;-66
2021/07/18 09:56:26;;;;;;;26.60;8.95;;;27.30;77.90;;;;;;4877259;29;20052;-67
2021/07/18 09:59:30;;;;;;;25.67;8.93;;;26.80;80.20;;;;;;4877313;29;20530;-67
2021/07/18 10:02:34;;;;;;;29.90;9.68;;;26.40;80.50;;;;;;4877763;29;20044;-67
2021/07/18 10:05:44;;;;;;;23.20;8.63;;;26.20;85.30;;;;;;4876702;29;20397;-67
2021/07/18 10:08:55;;;;;;;15.65;8.40;;;26.00;84.90;;;;;;4877388;29;20045;-67
2021/07/18 10:11:59;;;;;;;16.30;9.32;;;25.80;86.00;;;;;;4877292;29;20551;-67
2021/07/18 10:15:03;;;;;;;15.50;7.78;;;25.50;87.60;;;;;;4877642;29;20047;-67
2021/07/18 10:18:09;;;;;;;12.95;8.27;;;25.40;85.30;;;;;;4880088;29;20061;-67
2021/07/18 10:21:18;;;;;;;14.68;8.00;;;25.50;87.20;;;;;;4881089;29;20048;-67
2021/07/18 10:24:23;;;;;;;13.23;7.53;;;25.70;84.60;;;;;;4883660;29;20065;-67
2021/07/18 10:27:27;;;;;;;12.45;8.25;;;26.00;85.70;;;;;;4880829;29;20044;-67
2021/07/18 10:30:34;;;;;;;15.02;7.68;;;26.20;87.00;;;;;;4879908;29;20068;-66
2021/07/18 10:33:42;;;;;;;12.80;7.40;;;26.40;86.60;;;;;;4880167;29;20060;-67
2021/07/18 10:36:53;;;;;;;8.68;7.22;;;26.50;81.80;;;;;;4880165;29;20052;-67
2021/07/18 10:39:57;;;;;;;9.32;6.65;;;26.60;82.40;;;;;;4878768;29;20064;-66
2021/07/18 10:43:04;;;;;;;10.85;7.32;;;26.70;81.50;;;;;;4880593;29;20056;-67
2021/07/18 10:46:12;;;;;;;13.27;6.70;;;26.80;81.70;;;;;;4881086;29;20044;-66
2021/07/18 10:49:16;;;;;;;13.05;6.78;;;26.90;83.00;;;;;;4879104;29;20052;-65
2021/07/18 10:52:27;;;;;;;11.25;6.55;;;27.10;81.10;;;;;;4880397;29;20071;-67
2021/07/18 10:55:37;;;;;;;7.90;5.60;;;27.20;78.20;;;;;;4880333;29;20044;-66
2021/07/18 10:58:46;;;;;;;15.55;8.90;;;27.30;74.90;;;;;;4880309;29;20055;-66
2021/07/18 11:02:11;;;;;;;15.90;10.73;;;27.40;75.00;;;;;;4880126;29;20048;-67
2021/07/18 11:05:17;;;;;;;16.23;12.27;;;27.70;74.50;;;;;;4879644;29;20064;-66
2021/07/18 11:08:21;;;;;;;13.98;10.15;;;27.70;72.20;;;;;;4879768;29;20037;-68
2021/07/18 11:11:51;;;;;;;12.02;8.45;;;27.70;72.50;;;;;;4879204;29;20067;-67
2021/07/18 11:15:31;;;;;;;6.18;5.43;;;27.80;71.90;;;;;;4879859;29;20048;-67
2021/07/18 11:18:37;;;;;;;9.10;5.25;;;27.80;69.50;;;;;;4880101;29;20056;-68
2021/07/18 11:21:47;;;;;;;7.63;5.18;;;27.80;72.30;;;;;;4879523;29;20505;-66
2021/07/18 11:24:57;;;;;;;8.13;5.30;;;28.00;70.50;;;;;;4879886;29;20076;-70
2021/07/18 11:28:01;;;;;;;9.13;4.60;;;28.10;70.70;;;;;;4879280;29;20060;-66
2021/07/18 11:31:13;;;;;;;8.75;4.90;;;28.10;68.70;;;;;;4878988;29;20052;-67
2021/07/18 11:34:44;;;;;;;7.75;4.47;;;28.10;70.20;;;;;;4879231;29;20060;-67
2021/07/18 11:37:49;;;;;;;5.72;4.05;;;28.00;68.10;;;;;;4879638;29;20044;-66
2021/07/18 11:40:53;;;;;;;6.03;4.28;;;27.70;67.60;;;;;;4878877;29;20504;-67
2021/07/18 11:44:01;;;;;;;5.68;4.07;;;27.70;69.50;;;;;;4879448;29;20064;-67
2021/07/18 11:47:10;;;;;;;4.70;2.92;;;27.80;69.10;;;;;;4879801;29;20052;-66
2021/07/18 11:50:16;;;;;;;5.63;3.58;;;27.90;63.70;;;;;;4879501;29;20052;-67
2021/07/18 11:53:20;;;;;;;3.30;3.00;;;27.80;63.80;;;;;;4879432;29;20060;-66
2021/07/18 11:56:25;;;;;;;3.17;2.67;;;27.90;64.80;;;;;;4879196;29;20048;-67
2021/07/18 11:59:29;;;;;;;3.75;2.80;;;27.90;61.70;;;;;;4879175;29;20044;-67
2021/07/18 12:02:34;;;;;;;4.30;3.67;;;27.80;61.80;;;;;;4879323;29;20055;-66
2021/07/18 12:05:40;;;;;;;3.53;2.50;;;27.80;60.60;;;;;;4877845;29;20065;-66
2021/07/18 12:08:45;;;;;;;2.78;2.30;;;27.90;59.20;;;;;;4878934;29;20048;-67
2021/07/18 12:11:53;;;;;;;3.83;2.50;;;27.90;60.00;;;;;;4878704;29;20060;-66
2021/07/18 12:14:58;;;;;;;3.63;2.45;;;28.00;59.70;;;;;;4878774;29;20052;-68
2021/07/18 12:18:03;;;;;;;2.22;1.67;;;28.20;61.10;;;;;;4878087;29;20076;-66
2021/07/18 12:21:14;;;;;;;4.40;1.90;;;29.10;56.20;;;;;;4879199;29;20052;-66
2021/07/18 12:24:31;;;;;;;2.22;1.88;;;30.80;53.20;;;;;;4867389;29;20159;-66
2021/07/18 12:27:38;;;;;;;2.80;1.98;;;31.20;52.40;;;;;;4878473;29;20401;-66
2021/07/18 12:30:46;;;;;;;4.65;2.55;;;31.80;49.20;;;;;;4878707;29;20512;-68
2021/07/18 12:33:54;;;;;;;2.70;2.30;;;32.20;49.90;;;;;;4878515;29;20063;-66
2021/07/18 12:37:04;;;;;;;2.35;2.10;;;32.90;49.00;;;;;;4878759;29;20048;-66
2021/07/18 12:40:08;;;;;;;3.45;2.25;;;32.50;48.70;;;;;;4878375;29;20048;-66
2021/07/18 12:43:12;;;;;;;2.88;2.40;;;32.90;49.70;;;;;;4878454;29;20056;-66
2021/07/18 12:46:20;;;;;;;6.22;2.55;;;32.90;49.70;;;;;;4878935;29;20540;-67
2021/07/18 12:49:24;;;;;;;11.48;7.07;;;33.20;49.90;;;;;;4879566;29;20052;-66
2021/07/18 12:52:28;;;;;;;9.55;5.70;;;33.50;55.60;;;;;;4879842;29;20052;-67
2021/07/18 12:55:45;;;;;;;5.80;4.65;;;33.80;56.10;;;;;;4878955;29;20401;-66
2021/07/18 12:58:51;;;;;;;5.93;3.90;;;33.70;54.80;;;;;;4879672;29;20048;-67
2021/07/18 13:02:12;;;;;;;4.60;3.63;;;33.40;54.20;;;;;;4878140;29;20405;-68
2021/07/18 13:05:16;;;;;;;12.65;3.83;;;33.40;52.20;;;;;;4878529;29;20052;-67
2021/07/18 13:08:37;;;;;;;6.82;3.85;;;33.50;53.50;;;;;;4878945;29;20513;-67
2021/07/18 13:11:42;;;;;;;5.60;4.10;;;33.40;52.20;;;;;;4878343;29;20056;-66
2021/07/18 13:14:47;;;;;;;6.78;4.30;;;33.70;54.00;;;;;;4877617;29;20633;-67
2021/07/18 13:17:56;;;;;;;7.90;3.92;;;34.10;54.00;;;;;;4878516;29;20413;-67
2021/07/18 13:21:15;;;;;;;4.13;3.10;;;34.20;53.50;;;;;;4877277;29;20048;-66
2021/07/18 13:24:32;;;;;;;8.57;4.40;;;34.10;52.90;;;;;;4878937;29;20062;-67
2021/07/18 13:27:40;;;;;;;5.00;3.80;;;34.30;52.70;;;;;;4877663;29;20405;-65
2021/07/18 13:30:44;;;;;;;6.85;3.78;;;34.50;50.90;;;;;;4878318;29;20048;-68
2021/07/18 13:33:48;;;;;;;7.43;3.83;;;34.50;50.90;;;;;;4877720;29;20056;-68
2021/07/18 13:36:57;;;;;;;6.13;3.55;;;34.20;51.30;;;;;;4877696;29;20060;-67
2021/07/18 13:40:03;;;;;;;10.15;3.60;;;34.20;51.10;;;;;;4878364;29;20111;-68
2021/07/18 13:43:13;;;;;;;5.03;3.55;;;34.30;50.60;;;;;;4877067;29;20043;-67
2021/07/18 13:46:17;;;;;;;5.57;3.27;;;34.40;49.60;;;;;;4878046;29;20059;-67
2021/07/18 13:49:21;;;;;;;5.40;3.85;;;34.60;49.90;;;;;;4877642;29;20285;-67
2021/07/18 13:52:25;;;;;;;5.40;3.70;;;34.50;51.00;;;;;;4877638;29;20068;-65
2021/07/18 13:55:30;;;;;;;9.00;3.10;;;34.40;51.20;;;;;;4880806;29;20051;-65
2021/07/18 13:58:34;;;;;;;7.38;3.05;;;34.10;52.40;;;;;;4881264;29;20044;-66
2021/07/18 14:01:38;;;;;;;5.55;3.58;;;33.90;52.50;;;;;;4881488;29;20072;-67
2021/07/18 14:04:45;;;;;;;10.00;4.10;;;33.70;53.20;;;;;;4880404;29;20512;-68
2021/07/18 14:07:49;;;;;;;16.10;5.10;;;33.20;53.00;;;;;;4880654;29;20072;-66
2021/07/18 14:10:53;;;;;;;31.35;7.72;;;32.80;58.30;;;;;;4881106;29;20059;-67
2021/07/18 14:14:02;;;;;;;22.77;7.13;;;32.20;63.50;;;;;;4880954;29;20052;-70
2021/07/18 14:17:06;;;;;;;13.00;5.47;;;31.80;66.00;;;;;;4880287;29;20056;-69
2021/07/18 14:20:22;;;;;;;14.63;5.30;;;31.30;67.00;;;;;;4879934;29;20056;-64
2021/07/18 14:23:27;;;;;;;6.38;4.45;;;30.80;66.90;;;;;;4880533;29;20055;-64
2021/07/18 14:26:32;;;;;;;6.40;4.40;;;30.60;68.10;;;;;;4880552;29;20064;-64
2021/07/18 14:29:39;;;;;;;4.25;3.60;;;30.40;67.20;;;;;;4880472;29;20044;-65
2021/07/18 14:32:44;;;;;;;5.60;3.80;;;30.80;65.70;;;;;;4879474;29;20056;-65
2021/07/18 14:35:50;;;;;;;7.13;4.32;;;31.00;65.20;;;;;;4880441;29;20040;-66
2021/07/18 14:38:54;;;;;;;5.15;4.15;;;30.90;67.40;;;;;;4880789;29;20040;-66
2021/07/18 14:42:01;;;;;;;6.28;4.28;;;30.70;68.90;;;;;;4880141;29;20052;-65
2021/07/18 14:45:07;;;;;;;5.97;4.20;;;30.60;70.00;;;;;;4879835;29;20052;-65
2021/07/18 14:48:11;;;;;;;8.38;3.97;;;30.60;70.70;;;;;;4879007;29;20059;-65
2021/07/18 14:51:15;;;;;;;9.20;4.57;;;30.70;68.20;;;;;;4880258;29;20402;-66
2021/07/18 14:54:19;;;;;;;8.88;4.90;;;31.00;68.90;;;;;;4879975;29;20509;-66
2021/07/18 14:57:24;;;;;;;7.50;4.70;;;31.00;69.00;;;;;;4880014;29;20048;-67
2021/07/18 15:00:28;;;;;;;7.03;4.75;;;30.80;69.70;;;;;;4880332;29;20052;-65
2021/07/18 15:03:32;;;;;;;6.47;4.40;;;30.60;67.50;;;;;;4879832;29;20401;-67
2021/07/18 15:06:36;;;;;;;6.30;4.22;;;30.40;66.40;;;;;;4879080;29;20417;-66
2021/07/18 15:09:42;;;;;;;7.18;4.93;;;30.40;66.20;;;;;;4879890;29;20052;-66
2021/07/18 15:12:46;;;;;;;8.30;4.93;;;30.60;66.50;;;;;;4879842;29;20060;-66
2021/07/18 15:15:50;;;;;;;4.80;3.60;;;30.60;66.10;;;;;;4879715;29;20048;-66
2021/07/18 15:18:54;;;;;;;5.32;3.85;;;30.50;63.90;;;;;;4879159;29;20048;-66
2021/07/18 15:21:58;;;;;;;6.00;3.70;;;30.40;63.30;;;;;;4879682;29;20127;-66
2021/07/18 15:25:04;;;;;;;11.90;4.07;;;30.20;63.40;;;;;;4879392;29;20060;-66
2021/07/18 15:28:08;;;;;;;5.60;4.18;;;29.50;66.20;;;;;;4879154;29;20057;-66
2021/07/18 15:31:12;;;;;;;7.13;4.65;;;28.90;68.90;;;;;;4879188;29;20056;-66
2021/07/18 15:34:16;;;;;;;8.95;4.20;;;28.60;68.40;;;;;;4879281;29;20060;-66
2021/07/18 15:37:20;;;;;;;7.75;4.28;;;28.40;69.30;;;;;;4879301;29;20071;-66
2021/07/18 15:40:24;;;;;;;7.65;4.40;;;28.30;68.40;;;;;;4879188;29;20064;-67
2021/07/18 15:43:28;;;;;;;8.30;4.47;;;28.30;69.00;;;;;;4879155;29;20064;-67
2021/07/18 15:46:33;;;;;;;9.57;4.78;;;28.20;67.50;;;;;;4879227;29;20056;-67
2021/07/18 15:49:37;;;;;;;11.60;4.47;;;28.20;67.40;;;;;;4878971;29;20048;-66
2021/07/18 15:52:42;;;;;;;9.05;4.80;;;28.20;67.50;;;;;;4879147;29;20512;-66
2021/07/18 15:55:47;;;;;;;17.10;4.68;;;28.30;67.80;;;;;;4878863;29;20052;-66
2021/07/18 15:58:51;;;;;;;8.73;4.70;;;28.30;67.70;;;;;;4878664;29;20119;-66
2021/07/18 16:01:55;;;;;;;9.50;5.13;;;28.40;67.70;;;;;;4878667;29;20044;-66
2021/07/18 16:04:59;;;;;;;8.23;4.63;;;28.50;66.40;;;;;;4877768;29;20052;-66